sensor_id;sensor_type;location;lat;lon;timestamp;P1;durP1;ratioP1;P2;durP2;ratioP2
58250;SDS011;51449;51.676;5.812;2023-07-16T00:01:48;8.05;;;4.53;;
58250;SDS011;51449;51.676;5.812;2023-07-16T00:04:10;6.93;;;4.78;;
58250;SDS011;51449;51.676;5.812;2023-07-16T00:06:32;5.53;;;3.70;;
58250;SDS011;51449;51.676;5.812;2023-07-16T00:08:54;5.93;;;3.30;;
58250;SDS011;51449;51.676;5.812;2023-07-16T00:11:16;5.13;;;3.70;;
58250;SDS011;51449;51.676;5.812;2023-07-16T00:13:38;5.50;;;3.25;;
58250;SDS011;51449;51.676;5.812;2023-07-16T00:16:00;5.95;;;3.60;;
58250;SDS011;51449;51.676;5.812;2023-07-16T00:18:22;4.70;;;3.08;;
58250;SDS011;51449;51.676;5.812;2023-07-16T00:20:43;3.53;;;3.15;;
58250;SDS011;51449;51.676;5.812;2023-07-16T00:23:05;5.95;;;2.97;;
58250;SDS011;51449;51.676;5.812;2023-07-16T00:25:27;7.50;;;3.35;;
58250;SDS011;51449;51.676;5.812;2023-07-16T00:27:49;5.87;;;3.20;;
58250;SDS011;51449;51.676;5.812;2023-07-16T00:30:11;5.13;;;3.20;;
58250;SDS011;51449;51.676;5.812;2023-07-16T00:32:33;5.37;;;3.00;;
58250;SDS011;51449;51.676;5.812;2023-07-16T00:34:55;4.53;;;2.72;;
58250;SDS011;51449;51.676;5.812;2023-07-16T00:37:17;5.13;;;2.88;;
58250;SDS011;51449;51.676;5.812;2023-07-16T00:39:38;6.03;;;3.10;;
58250;SDS011;51449;51.676;5.812;2023-07-16T00:42:00;5.53;;;2.83;;
58250;SDS011;51449;51.676;5.812;2023-07-16T00:44:22;6.13;;;3.03;;
58250;SDS011;51449;51.676;5.812;2023-07-16T00:46:44;5.60;;;2.67;;
58250;SDS011;51449;51.676;5.812;2023-07-16T00:49:06;6.50;;;2.73;;
58250;SDS011;51449;51.676;5.812;2023-07-16T00:51:28;5.03;;;3.00;;
58250;SDS011;51449;51.676;5.812;2023-07-16T00:53:51;4.83;;;3.07;;
58250;SDS011;51449;51.676;5.812;2023-07-16T00:56:15;7.37;;;3.23;;
58250;SDS011;51449;51.676;5.812;2023-07-16T00:58:41;6.20;;;3.40;;
58250;SDS011;51449;51.676;5.812;2023-07-16T01:01:03;7.27;;;3.57;;
58250;SDS011;51449;51.676;5.812;2023-07-16T01:03:25;6.40;;;4.20;;
58250;SDS011;51449;51.676;5.812;2023-07-16T01:06:00;6.53;;;3.63;;
58250;SDS011;51449;51.676;5.812;2023-07-16T01:11:13;7.30;;;3.43;;
58250;SDS011;51449;51.676;5.812;2023-07-16T01:13:36;5.07;;;3.60;;
58250;SDS011;51449;51.676;5.812;2023-07-16T01:15:58;4.90;;;3.67;;
58250;SDS011;51449;51.676;5.812;2023-07-16T01:18:20;5.20;;;3.90;;
58250;SDS011;51449;51.676;5.812;2023-07-16T01:20:42;6.20;;;3.97;;
58250;SDS011;51449;51.676;5.812;2023-07-16T01:23:24;4.97;;;3.60;;
58250;SDS011;51449;51.676;5.812;2023-07-16T01:29:26;4.83;;;3.50;;
58250;SDS011;51449;51.676;5.812;2023-07-16T01:31:49;6.23;;;3.70;;
58250;SDS011;51449;51.676;5.812;2023-07-16T01:34:12;6.00;;;4.07;;
58250;SDS011;51449;51.676;5.812;2023-07-16T01:36:36;6.37;;;3.53;;
58250;SDS011;51449;51.676;5.812;2023-07-16T01:41:22;5.00;;;3.73;;
58250;SDS011;51449;51.676;5.812;2023-07-16T01:43:46;6.67;;;4.17;;
58250;SDS011;51449;51.676;5.812;2023-07-16T01:46:07;5.20;;;3.70;;
58250;SDS011;51449;51.676;5.812;2023-07-16T01:48:33;5.57;;;3.70;;
58250;SDS011;51449;51.676;5.812;2023-07-16T01:50:59;6.43;;;4.10;;
58250;SDS011;51449;51.676;5.812;2023-07-16T01:53:21;6.43;;;3.67;;
58250;SDS011;51449;51.676;5.812;2023-07-16T01:55:43;5.97;;;3.40;;
58250;SDS011;51449;51.676;5.812;2023-07-16T01:58:05;5.73;;;3.70;;
58250;SDS011;51449;51.676;5.812;2023-07-16T02:00:28;5.97;;;3.67;;
58250;SDS011;51449;51.676;5.812;2023-07-16T02:02:49;7.83;;;4.20;;
58250;SDS011;51449;51.676;5.812;2023-07-16T02:05:11;6.77;;;3.80;;
58250;SDS011;51449;51.676;5.812;2023-07-16T02:07:33;5.93;;;3.83;;
58250;SDS011;51449;51.676;5.812;2023-07-16T02:09:55;9.60;;;3.90;;
58250;SDS011;51449;51.676;5.812;2023-07-16T02:12:17;7.90;;;3.47;;
58250;SDS011;51449;51.676;5.812;2023-07-16T02:14:38;6.70;;;3.90;;
58250;SDS011;51449;51.676;5.812;2023-07-16T02:17:00;4.23;;;3.40;;
58250;SDS011;51449;51.676;5.812;2023-07-16T02:19:22;7.20;;;3.60;;
58250;SDS011;51449;51.676;5.812;2023-07-16T02:21:44;5.53;;;3.80;;
58250;SDS011;51449;51.676;5.812;2023-07-16T02:24:06;7.10;;;3.70;;
58250;SDS011;51449;51.676;5.812;2023-07-16T02:26:28;12.20;;;4.20;;
58250;SDS011;51449;51.676;5.812;2023-07-16T02:28:51;6.93;;;3.93;;
58250;SDS011;51449;51.676;5.812;2023-07-16T02:31:13;6.47;;;3.90;;
58250;SDS011;51449;51.676;5.812;2023-07-16T02:33:35;7.57;;;4.00;;
58250;SDS011;51449;51.676;5.812;2023-07-16T02:35:56;7.90;;;4.00;;
58250;SDS011;51449;51.676;5.812;2023-07-16T02:38:18;6.00;;;3.77;;
58250;SDS011;51449;51.676;5.812;2023-07-16T02:40:45;4.63;;;4.10;;
58250;SDS011;51449;51.676;5.812;2023-07-16T02:43:08;8.43;;;4.40;;
58250;SDS011;51449;51.676;5.812;2023-07-16T02:45:30;4.43;;;3.30;;
58250;SDS011;51449;51.676;5.812;2023-07-16T02:47:52;4.90;;;3.53;;
58250;SDS011;51449;51.676;5.812;2023-07-16T02:50:13;6.57;;;3.70;;
58250;SDS011;51449;51.676;5.812;2023-07-16T02:52:35;4.97;;;3.83;;
58250;SDS011;51449;51.676;5.812;2023-07-16T02:54:57;5.63;;;3.70;;
58250;SDS011;51449;51.676;5.812;2023-07-16T02:57:20;7.07;;;3.80;;
58250;SDS011;51449;51.676;5.812;2023-07-16T03:02:05;7.90;;;3.83;;
58250;SDS011;51449;51.676;5.812;2023-07-16T03:04:27;7.33;;;3.70;;
58250;SDS011;51449;51.676;5.812;2023-07-16T03:06:49;6.33;;;3.70;;
58250;SDS011;51449;51.676;5.812;2023-07-16T03:09:11;7.43;;;3.67;;
58250;SDS011;51449;51.676;5.812;2023-07-16T03:11:33;6.97;;;3.97;;
58250;SDS011;51449;51.676;5.812;2023-07-16T03:13:54;6.07;;;3.60;;
58250;SDS011;51449;51.676;5.812;2023-07-16T03:16:17;7.90;;;3.80;;
58250;SDS011;51449;51.676;5.812;2023-07-16T03:18:39;6.50;;;3.60;;
58250;SDS011;51449;51.676;5.812;2023-07-16T03:21:02;5.43;;;3.70;;
58250;SDS011;51449;51.676;5.812;2023-07-16T03:23:24;7.87;;;4.20;;
58250;SDS011;51449;51.676;5.812;2023-07-16T03:25:46;4.77;;;3.47;;
58250;SDS011;51449;51.676;5.812;2023-07-16T03:28:08;5.80;;;3.87;;
58250;SDS011;51449;51.676;5.812;2023-07-16T03:30:30;5.90;;;3.63;;
58250;SDS011;51449;51.676;5.812;2023-07-16T03:32:53;8.87;;;4.07;;
58250;SDS011;51449;51.676;5.812;2023-07-16T03:37:39;8.53;;;3.60;;
58250;SDS011;51449;51.676;5.812;2023-07-16T03:40:15;7.47;;;3.73;;
58250;SDS011;51449;51.676;5.812;2023-07-16T03:42:41;8.33;;;3.90;;
58250;SDS011;51449;51.676;5.812;2023-07-16T03:45:03;6.40;;;3.50;;
58250;SDS011;51449;51.676;5.812;2023-07-16T03:47:25;6.30;;;3.73;;
58250;SDS011;51449;51.676;5.812;2023-07-16T03:49:47;8.07;;;3.93;;
58250;SDS011;51449;51.676;5.812;2023-07-16T03:52:09;6.87;;;4.07;;
58250;SDS011;51449;51.676;5.812;2023-07-16T03:54:31;7.03;;;3.70;;
58250;SDS011;51449;51.676;5.812;2023-07-16T03:56:53;6.03;;;3.57;;
58250;SDS011;51449;51.676;5.812;2023-07-16T03:59:18;7.23;;;3.60;;
58250;SDS011;51449;51.676;5.812;2023-07-16T04:01:40;10.47;;;4.00;;
58250;SDS011;51449;51.676;5.812;2023-07-16T04:04:03;8.27;;;3.80;;
58250;SDS011;51449;51.676;5.812;2023-07-16T04:06:26;6.07;;;3.43;;
58250;SDS011;51449;51.676;5.812;2023-07-16T04:08:48;10.73;;;3.90;;
58250;SDS011;51449;51.676;5.812;2023-07-16T04:11:09;8.40;;;3.37;;
58250;SDS011;51449;51.676;5.812;2023-07-16T04:13:31;6.60;;;3.63;;
58250;SDS011;51449;51.676;5.812;2023-07-16T04:15:54;6.70;;;3.30;;
58250;SDS011;51449;51.676;5.812;2023-07-16T04:18:17;7.07;;;3.80;;
58250;SDS011;51449;51.676;5.812;2023-07-16T04:20:38;8.33;;;4.10;;
58250;SDS011;51449;51.676;5.812;2023-07-16T04:23:00;7.80;;;3.60;;
58250;SDS011;51449;51.676;5.812;2023-07-16T04:25:22;9.87;;;3.80;;
58250;SDS011;51449;51.676;5.812;2023-07-16T04:27:44;7.20;;;3.90;;
58250;SDS011;51449;51.676;5.812;2023-07-16T04:30:06;5.63;;;3.80;;
58250;SDS011;51449;51.676;5.812;2023-07-16T04:32:29;5.93;;;3.28;;
58250;SDS011;51449;51.676;5.812;2023-07-16T04:34:51;6.53;;;3.60;;
58250;SDS011;51449;51.676;5.812;2023-07-16T04:37:13;9.20;;;4.07;;
58250;SDS011;51449;51.676;5.812;2023-07-16T04:39:35;7.73;;;3.97;;
58250;SDS011;51449;51.676;5.812;2023-07-16T04:41:56;7.13;;;4.03;;
58250;SDS011;51449;51.676;5.812;2023-07-16T04:44:18;8.60;;;3.73;;
58250;SDS011;51449;51.676;5.812;2023-07-16T04:46:41;7.67;;;4.10;;
58250;SDS011;51449;51.676;5.812;2023-07-16T04:49:04;8.33;;;4.00;;
58250;SDS011;51449;51.676;5.812;2023-07-16T04:51:26;10.43;;;4.10;;
58250;SDS011;51449;51.676;5.812;2023-07-16T04:53:48;9.50;;;4.40;;
58250;SDS011;51449;51.676;5.812;2023-07-16T04:56:12;6.73;;;4.07;;
58250;SDS011;51449;51.676;5.812;2023-07-16T04:58:35;9.83;;;4.53;;
58250;SDS011;51449;51.676;5.812;2023-07-16T05:00:57;7.60;;;4.47;;
58250;SDS011;51449;51.676;5.812;2023-07-16T05:03:18;9.87;;;4.90;;
58250;SDS011;51449;51.676;5.812;2023-07-16T05:05:40;12.00;;;4.73;;
58250;SDS011;51449;51.676;5.812;2023-07-16T05:08:02;7.37;;;4.50;;
58250;SDS011;51449;51.676;5.812;2023-07-16T05:10:24;7.20;;;4.50;;
58250;SDS011;51449;51.676;5.812;2023-07-16T05:12:46;9.07;;;4.93;;
58250;SDS011;51449;51.676;5.812;2023-07-16T05:15:08;10.47;;;5.23;;
58250;SDS011;51449;51.676;5.812;2023-07-16T05:17:30;7.37;;;4.37;;
58250;SDS011;51449;51.676;5.812;2023-07-16T05:19:52;9.17;;;5.17;;
58250;SDS011;51449;51.676;5.812;2023-07-16T05:22:15;8.40;;;4.83;;
58250;SDS011;51449;51.676;5.812;2023-07-16T05:24:36;9.13;;;4.43;;
58250;SDS011;51449;51.676;5.812;2023-07-16T05:26:58;8.80;;;4.80;;
58250;SDS011;51449;51.676;5.812;2023-07-16T05:29:20;9.13;;;4.80;;
58250;SDS011;51449;51.676;5.812;2023-07-16T05:31:42;10.63;;;5.07;;
58250;SDS011;51449;51.676;5.812;2023-07-16T05:34:04;7.80;;;4.80;;
58250;SDS011;51449;51.676;5.812;2023-07-16T05:36:26;8.90;;;4.83;;
58250;SDS011;51449;51.676;5.812;2023-07-16T05:38:47;9.43;;;4.67;;
58250;SDS011;51449;51.676;5.812;2023-07-16T05:41:09;11.97;;;5.57;;
58250;SDS011;51449;51.676;5.812;2023-07-16T05:43:31;10.13;;;4.87;;
58250;SDS011;51449;51.676;5.812;2023-07-16T05:45:54;12.40;;;4.70;;
58250;SDS011;51449;51.676;5.812;2023-07-16T05:48:16;9.37;;;5.47;;
58250;SDS011;51449;51.676;5.812;2023-07-16T05:50:38;8.77;;;4.97;;
58250;SDS011;51449;51.676;5.812;2023-07-16T05:53:00;9.57;;;5.27;;
58250;SDS011;51449;51.676;5.812;2023-07-16T05:55:22;12.10;;;5.03;;
58250;SDS011;51449;51.676;5.812;2023-07-16T05:57:43;8.57;;;5.03;;
58250;SDS011;51449;51.676;5.812;2023-07-16T06:00:06;9.13;;;5.07;;
58250;SDS011;51449;51.676;5.812;2023-07-16T06:02:36;11.73;;;5.40;;
58250;SDS011;51449;51.676;5.812;2023-07-16T06:04:57;10.57;;;4.90;;
58250;SDS011;51449;51.676;5.812;2023-07-16T06:07:19;9.53;;;5.33;;
58250;SDS011;51449;51.676;5.812;2023-07-16T06:09:41;10.93;;;5.37;;
58250;SDS011;51449;51.676;5.812;2023-07-16T06:12:03;8.37;;;5.20;;
58250;SDS011;51449;51.676;5.812;2023-07-16T06:14:25;8.53;;;4.97;;
58250;SDS011;51449;51.676;5.812;2023-07-16T06:16:47;10.37;;;5.43;;
58250;SDS011;51449;51.676;5.812;2023-07-16T06:19:09;11.50;;;5.23;;
58250;SDS011;51449;51.676;5.812;2023-07-16T06:21:31;10.57;;;5.33;;
58250;SDS011;51449;51.676;5.812;2023-07-16T06:23:53;11.77;;;5.47;;
58250;SDS011;51449;51.676;5.812;2023-07-16T06:26:15;8.00;;;5.03;;
58250;SDS011;51449;51.676;5.812;2023-07-16T06:28:37;12.27;;;5.40;;
58250;SDS011;51449;51.676;5.812;2023-07-16T06:30:59;8.20;;;5.03;;
58250;SDS011;51449;51.676;5.812;2023-07-16T06:33:21;12.57;;;5.57;;
58250;SDS011;51449;51.676;5.812;2023-07-16T06:35:46;9.40;;;5.20;;
58250;SDS011;51449;51.676;5.812;2023-07-16T06:38:09;12.80;;;6.10;;
58250;SDS011;51449;51.676;5.812;2023-07-16T06:40:31;9.18;;;5.13;;
58250;SDS011;51449;51.676;5.812;2023-07-16T06:42:52;10.57;;;5.43;;
58250;SDS011;51449;51.676;5.812;2023-07-16T06:45:14;11.00;;;5.78;;
58250;SDS011;51449;51.676;5.812;2023-07-16T06:47:36;8.43;;;5.30;;
58250;SDS011;51449;51.676;5.812;2023-07-16T06:49:58;10.95;;;5.25;;
58250;SDS011;51449;51.676;5.812;2023-07-16T06:52:21;10.45;;;5.63;;
58250;SDS011;51449;51.676;5.812;2023-07-16T06:54:46;9.52;;;5.30;;
58250;SDS011;51449;51.676;5.812;2023-07-16T06:57:07;12.88;;;5.38;;
58250;SDS011;51449;51.676;5.812;2023-07-16T06:59:29;12.02;;;5.20;;
58250;SDS011;51449;51.676;5.812;2023-07-16T07:01:51;8.60;;;5.50;;
58250;SDS011;51449;51.676;5.812;2023-07-16T07:04:13;11.38;;;5.47;;
58250;SDS011;51449;51.676;5.812;2023-07-16T07:06:35;8.60;;;5.80;;
58250;SDS011;51449;51.676;5.812;2023-07-16T07:08:57;9.20;;;5.13;;
58250;SDS011;51449;51.676;5.812;2023-07-16T07:11:20;11.70;;;5.55;;
58250;SDS011;51449;51.676;5.812;2023-07-16T07:13:41;9.00;;;5.50;;
58250;SDS011;51449;51.676;5.812;2023-07-16T07:16:04;9.48;;;5.47;;
58250;SDS011;51449;51.676;5.812;2023-07-16T07:18:26;9.15;;;5.57;;
58250;SDS011;51449;51.676;5.812;2023-07-16T07:20:48;9.90;;;5.30;;
58250;SDS011;51449;51.676;5.812;2023-07-16T07:23:10;10.13;;;5.18;;
58250;SDS011;51449;51.676;5.812;2023-07-16T07:25:32;9.77;;;5.30;;
58250;SDS011;51449;51.676;5.812;2023-07-16T07:27:54;9.48;;;5.20;;
58250;SDS011;51449;51.676;5.812;2023-07-16T07:30:16;9.30;;;5.20;;
58250;SDS011;51449;51.676;5.812;2023-07-16T07:32:37;7.72;;;4.90;;
58250;SDS011;51449;51.676;5.812;2023-07-16T07:35:01;8.82;;;4.97;;
58250;SDS011;51449;51.676;5.812;2023-07-16T07:37:24;7.97;;;5.72;;
58250;SDS011;51449;51.676;5.812;2023-07-16T07:39:48;9.07;;;5.65;;
58250;SDS011;51449;51.676;5.812;2023-07-16T07:42:13;7.60;;;5.05;;
58250;SDS011;51449;51.676;5.812;2023-07-16T07:44:36;10.98;;;5.85;;
58250;SDS011;51449;51.676;5.812;2023-07-16T07:46:58;10.18;;;5.38;;
58250;SDS011;51449;51.676;5.812;2023-07-16T07:49:20;8.68;;;5.30;;
58250;SDS011;51449;51.676;5.812;2023-07-16T07:51:42;6.82;;;5.20;;
58250;SDS011;51449;51.676;5.812;2023-07-16T07:54:04;9.20;;;5.25;;
58250;SDS011;51449;51.676;5.812;2023-07-16T07:56:26;10.00;;;5.93;;
58250;SDS011;51449;51.676;5.812;2023-07-16T07:58:48;9.25;;;5.40;;
58250;SDS011;51449;51.676;5.812;2023-07-16T08:01:09;7.53;;;5.40;;
58250;SDS011;51449;51.676;5.812;2023-07-16T08:03:31;8.68;;;4.53;;
58250;SDS011;51449;51.676;5.812;2023-07-16T08:05:54;9.98;;;5.40;;
58250;SDS011;51449;51.676;5.812;2023-07-16T08:08:16;10.05;;;5.03;;
58250;SDS011;51449;51.676;5.812;2023-07-16T08:10:37;10.27;;;5.07;;
58250;SDS011;51449;51.676;5.812;2023-07-16T08:12:59;11.00;;;5.28;;
58250;SDS011;51449;51.676;5.812;2023-07-16T08:15:21;7.70;;;4.90;;
58250;SDS011;51449;51.676;5.812;2023-07-16T08:17:44;10.52;;;5.47;;
58250;SDS011;51449;51.676;5.812;2023-07-16T08:20:07;8.32;;;5.18;;
58250;SDS011;51449;51.676;5.812;2023-07-16T08:22:30;8.38;;;4.90;;
58250;SDS011;51449;51.676;5.812;2023-07-16T08:24:52;9.02;;;4.82;;
58250;SDS011;51449;51.676;5.812;2023-07-16T08:27:14;8.60;;;4.75;;
58250;SDS011;51449;51.676;5.812;2023-07-16T08:29:36;8.35;;;4.75;;
58250;SDS011;51449;51.676;5.812;2023-07-16T08:31:58;10.10;;;5.13;;
58250;SDS011;51449;51.676;5.812;2023-07-16T08:34:20;8.82;;;4.97;;
58250;SDS011;51449;51.676;5.812;2023-07-16T08:36:42;8.40;;;4.95;;
58250;SDS011;51449;51.676;5.812;2023-07-16T08:39:05;6.90;;;4.97;;
58250;SDS011;51449;51.676;5.812;2023-07-16T08:41:29;10.77;;;4.75;;
58250;SDS011;51449;51.676;5.812;2023-07-16T08:43:51;8.13;;;4.72;;
58250;SDS011;51449;51.676;5.812;2023-07-16T08:46:15;8.25;;;4.38;;
58250;SDS011;51449;51.676;5.812;2023-07-16T08:48:37;9.45;;;4.90;;
58250;SDS011;51449;51.676;5.812;2023-07-16T08:51:01;6.53;;;4.40;;
58250;SDS011;51449;51.676;5.812;2023-07-16T08:53:24;8.15;;;4.57;;
58250;SDS011;51449;51.676;5.812;2023-07-16T08:55:46;7.13;;;4.38;;
58250;SDS011;51449;51.676;5.812;2023-07-16T08:58:13;6.57;;;4.40;;
58250;SDS011;51449;51.676;5.812;2023-07-16T09:00:36;8.90;;;4.20;;
58250;SDS011;51449;51.676;5.812;2023-07-16T09:02:59;7.97;;;4.47;;
58250;SDS011;51449;51.676;5.812;2023-07-16T09:05:22;5.80;;;4.00;;
58250;SDS011;51449;51.676;5.812;2023-07-16T09:08:00;7.20;;;4.30;;
58250;SDS011;51449;51.676;5.812;2023-07-16T09:10:22;7.05;;;4.50;;
58250;SDS011;51449;51.676;5.812;2023-07-16T09:12:45;10.88;;;4.75;;
58250;SDS011;51449;51.676;5.812;2023-07-16T09:15:07;6.88;;;4.43;;
58250;SDS011;51449;51.676;5.812;2023-07-16T09:17:30;6.93;;;4.45;;
58250;SDS011;51449;51.676;5.812;2023-07-16T09:19:52;9.10;;;4.25;;
58250;SDS011;51449;51.676;5.812;2023-07-16T09:22:13;7.38;;;4.20;;
58250;SDS011;51449;51.676;5.812;2023-07-16T09:24:39;8.20;;;4.55;;
58250;SDS011;51449;51.676;5.812;2023-07-16T09:27:01;6.63;;;4.10;;
58250;SDS011;51449;51.676;5.812;2023-07-16T09:29:24;5.57;;;3.75;;
58250;SDS011;51449;51.676;5.812;2023-07-16T09:32:05;6.90;;;4.00;;
58250;SDS011;51449;51.676;5.812;2023-07-16T09:34:28;4.95;;;3.53;;
58250;SDS011;51449;51.676;5.812;2023-07-16T09:36:51;9.23;;;4.03;;
58250;SDS011;51449;51.676;5.812;2023-07-16T09:39:13;7.55;;;3.97;;
58250;SDS011;51449;51.676;5.812;2023-07-16T09:41:42;6.10;;;4.07;;
58250;SDS011;51449;51.676;5.812;2023-07-16T09:44:04;5.25;;;3.90;;
58250;SDS011;51449;51.676;5.812;2023-07-16T09:46:27;8.80;;;4.13;;
58250;SDS011;51449;51.676;5.812;2023-07-16T09:48:49;10.07;;;4.63;;
58250;SDS011;51449;51.676;5.812;2023-07-16T09:51:11;6.40;;;3.90;;
58250;SDS011;51449;51.676;5.812;2023-07-16T09:53:34;6.85;;;3.97;;
58250;SDS011;51449;51.676;5.812;2023-07-16T09:55:58;11.00;;;4.25;;
58250;SDS011;51449;51.676;5.812;2023-07-16T09:58:21;7.13;;;4.53;;
58250;SDS011;51449;51.676;5.812;2023-07-16T10:00:46;6.97;;;4.07;;
58250;SDS011;51449;51.676;5.812;2023-07-16T10:03:11;6.32;;;3.92;;
58250;SDS011;51449;51.676;5.812;2023-07-16T10:05:35;10.05;;;4.07;;
58250;SDS011;51449;51.676;5.812;2023-07-16T10:07:59;9.40;;;4.63;;
58250;SDS011;51449;51.676;5.812;2023-07-16T10:10:21;9.80;;;4.47;;
58250;SDS011;51449;51.676;5.812;2023-07-16T10:12:54;9.20;;;3.78;;
58250;SDS011;51449;51.676;5.812;2023-07-16T10:15:24;5.93;;;3.88;;
58250;SDS011;51449;51.676;5.812;2023-07-16T10:17:49;7.57;;;4.00;;
58250;SDS011;51449;51.676;5.812;2023-07-16T10:20:13;5.80;;;3.90;;
58250;SDS011;51449;51.676;5.812;2023-07-16T10:25:01;6.07;;;3.53;;
58250;SDS011;51449;51.676;5.812;2023-07-16T10:27:52;4.85;;;3.17;;
58250;SDS011;51449;51.676;5.812;2023-07-16T10:30:15;6.35;;;3.50;;
58250;SDS011;51449;51.676;5.812;2023-07-16T10:32:38;8.38;;;3.80;;
58250;SDS011;51449;51.676;5.812;2023-07-16T10:35:01;7.20;;;3.85;;
58250;SDS011;51449;51.676;5.812;2023-07-16T10:37:24;6.07;;;4.00;;
58250;SDS011;51449;51.676;5.812;2023-07-16T10:39:51;7.68;;;3.53;;
58250;SDS011;51449;51.676;5.812;2023-07-16T10:42:16;4.93;;;3.50;;
58250;SDS011;51449;51.676;5.812;2023-07-16T10:44:39;7.20;;;3.80;;
58250;SDS011;51449;51.676;5.812;2023-07-16T10:47:02;6.55;;;3.75;;
58250;SDS011;51449;51.676;5.812;2023-07-16T10:49:28;6.40;;;3.35;;
58250;SDS011;51449;51.676;5.812;2023-07-16T10:51:50;5.88;;;3.60;;
58250;SDS011;51449;51.676;5.812;2023-07-16T10:54:12;7.43;;;3.38;;
58250;SDS011;51449;51.676;5.812;2023-07-16T10:56:35;5.60;;;3.70;;
58250;SDS011;51449;51.676;5.812;2023-07-16T10:58:58;5.95;;;3.35;;
58250;SDS011;51449;51.676;5.812;2023-07-16T11:01:20;8.30;;;4.05;;
58250;SDS011;51449;51.676;5.812;2023-07-16T11:03:42;5.97;;;3.53;;
58250;SDS011;51449;51.676;5.812;2023-07-16T11:06:08;4.60;;;3.40;;
58250;SDS011;51449;51.676;5.812;2023-07-16T11:08:30;7.13;;;3.67;;
58250;SDS011;51449;51.676;5.812;2023-07-16T11:10:53;5.97;;;4.03;;
58250;SDS011;51449;51.676;5.812;2023-07-16T11:13:18;5.10;;;3.50;;
58250;SDS011;51449;51.676;5.812;2023-07-16T11:15:40;7.75;;;3.35;;
58250;SDS011;51449;51.676;5.812;2023-07-16T11:18:02;5.03;;;3.40;;
58250;SDS011;51449;51.676;5.812;2023-07-16T11:20:24;5.22;;;3.17;;
58250;SDS011;51449;51.676;5.812;2023-07-16T11:22:46;6.20;;;3.47;;
58250;SDS011;51449;51.676;5.812;2023-07-16T11:25:11;6.30;;;3.30;;
58250;SDS011;51449;51.676;5.812;2023-07-16T11:27:34;6.97;;;3.70;;
58250;SDS011;51449;51.676;5.812;2023-07-16T11:29:56;5.43;;;3.45;;
58250;SDS011;51449;51.676;5.812;2023-07-16T11:32:42;5.55;;;3.25;;
58250;SDS011;51449;51.676;5.812;2023-07-16T11:35:05;5.45;;;3.40;;
58250;SDS011;51449;51.676;5.812;2023-07-16T11:37:29;6.00;;;3.40;;
58250;SDS011;51449;51.676;5.812;2023-07-16T11:40:06;5.40;;;3.58;;
58250;SDS011;51449;51.676;5.812;2023-07-16T11:42:31;5.75;;;3.53;;
58250;SDS011;51449;51.676;5.812;2023-07-16T11:44:55;5.72;;;3.20;;
58250;SDS011;51449;51.676;5.812;2023-07-16T11:47:18;7.82;;;3.63;;
58250;SDS011;51449;51.676;5.812;2023-07-16T11:49:40;8.13;;;4.43;;
58250;SDS011;51449;51.676;5.812;2023-07-16T11:52:02;6.30;;;3.53;;
58250;SDS011;51449;51.676;5.812;2023-07-16T11:54:24;6.63;;;4.05;;
58250;SDS011;51449;51.676;5.812;2023-07-16T11:56:46;6.45;;;3.38;;
58250;SDS011;51449;51.676;5.812;2023-07-16T11:59:09;7.22;;;3.47;;
58250;SDS011;51449;51.676;5.812;2023-07-16T12:01:34;6.50;;;3.85;;
58250;SDS011;51449;51.676;5.812;2023-07-16T12:03:56;4.90;;;3.22;;
58250;SDS011;51449;51.676;5.812;2023-07-16T12:06:18;4.97;;;3.60;;
58250;SDS011;51449;51.676;5.812;2023-07-16T12:08:40;6.40;;;3.47;;
58250;SDS011;51449;51.676;5.812;2023-07-16T12:11:01;6.05;;;3.60;;
58250;SDS011;51449;51.676;5.812;2023-07-16T12:13:23;8.02;;;3.75;;
58250;SDS011;51449;51.676;5.812;2023-07-16T12:15:45;5.15;;;3.58;;
58250;SDS011;51449;51.676;5.812;2023-07-16T12:18:07;6.30;;;3.78;;
58250;SDS011;51449;51.676;5.812;2023-07-16T12:20:28;6.50;;;3.88;;
58250;SDS011;51449;51.676;5.812;2023-07-16T12:22:50;6.43;;;3.65;;
58250;SDS011;51449;51.676;5.812;2023-07-16T12:25:12;8.10;;;3.78;;
58250;SDS011;51449;51.676;5.812;2023-07-16T12:27:36;5.65;;;3.65;;
58250;SDS011;51449;51.676;5.812;2023-07-16T12:29:57;6.10;;;3.53;;
58250;SDS011;51449;51.676;5.812;2023-07-16T12:32:19;6.38;;;3.35;;
58250;SDS011;51449;51.676;5.812;2023-07-16T12:34:41;6.28;;;3.85;;
58250;SDS011;51449;51.676;5.812;2023-07-16T12:37:04;5.63;;;3.45;;
58250;SDS011;51449;51.676;5.812;2023-07-16T12:39:26;6.28;;;3.67;;
58250;SDS011;51449;51.676;5.812;2023-07-16T12:41:49;7.03;;;3.70;;
58250;SDS011;51449;51.676;5.812;2023-07-16T12:44:11;7.38;;;4.07;;
58250;SDS011;51449;51.676;5.812;2023-07-16T12:46:33;6.30;;;3.90;;
58250;SDS011;51449;51.676;5.812;2023-07-16T12:48:55;7.15;;;3.90;;
58250;SDS011;51449;51.676;5.812;2023-07-16T12:51:16;6.35;;;4.10;;
58250;SDS011;51449;51.676;5.812;2023-07-16T12:53:38;6.13;;;4.18;;
58250;SDS011;51449;51.676;5.812;2023-07-16T12:56:01;5.40;;;3.50;;
58250;SDS011;51449;51.676;5.812;2023-07-16T12:58:22;6.40;;;3.70;;
58250;SDS011;51449;51.676;5.812;2023-07-16T13:00:44;7.50;;;4.22;;
58250;SDS011;51449;51.676;5.812;2023-07-16T13:03:06;7.25;;;4.00;;
58250;SDS011;51449;51.676;5.812;2023-07-16T13:05:33;7.03;;;3.88;;
58250;SDS011;51449;51.676;5.812;2023-07-16T13:07:54;7.28;;;4.30;;
58250;SDS011;51449;51.676;5.812;2023-07-16T13:10:16;7.65;;;4.22;;
58250;SDS011;51449;51.676;5.812;2023-07-16T13:12:44;7.10;;;4.03;;
58250;SDS011;51449;51.676;5.812;2023-07-16T13:15:06;8.15;;;4.32;;
58250;SDS011;51449;51.676;5.812;2023-07-16T13:17:29;5.50;;;3.83;;
58250;SDS011;51449;51.676;5.812;2023-07-16T13:19:50;8.80;;;4.20;;
58250;SDS011;51449;51.676;5.812;2023-07-16T13:22:13;6.25;;;4.05;;
58250;SDS011;51449;51.676;5.812;2023-07-16T13:24:35;6.38;;;3.97;;
58250;SDS011;51449;51.676;5.812;2023-07-16T13:26:57;7.18;;;3.85;;
58250;SDS011;51449;51.676;5.812;2023-07-16T13:29:19;6.05;;;4.10;;
58250;SDS011;51449;51.676;5.812;2023-07-16T13:31:41;5.97;;;4.03;;
58250;SDS011;51449;51.676;5.812;2023-07-16T13:34:02;7.15;;;4.30;;
58250;SDS011;51449;51.676;5.812;2023-07-16T13:36:24;6.45;;;4.25;;
58250;SDS011;51449;51.676;5.812;2023-07-16T13:38:46;3.38;;;2.55;;
58250;SDS011;51449;51.676;5.812;2023-07-16T13:41:08;6.35;;;3.25;;
58250;SDS011;51449;51.676;5.812;2023-07-16T13:43:29;5.28;;;3.00;;
58250;SDS011;51449;51.676;5.812;2023-07-16T13:45:51;7.18;;;2.70;;
58250;SDS011;51449;51.676;5.812;2023-07-16T13:48:13;5.18;;;2.85;;
58250;SDS011;51449;51.676;5.812;2023-07-16T13:50:35;7.53;;;3.38;;
58250;SDS011;51449;51.676;5.812;2023-07-16T13:52:57;6.38;;;2.90;;
58250;SDS011;51449;51.676;5.812;2023-07-16T13:55:22;5.50;;;3.10;;
58250;SDS011;51449;51.676;5.812;2023-07-16T13:57:44;5.10;;;2.78;;
58250;SDS011;51449;51.676;5.812;2023-07-16T14:00:07;5.70;;;3.10;;
58250;SDS011;51449;51.676;5.812;2023-07-16T14:02:31;5.68;;;2.72;;
58250;SDS011;51449;51.676;5.812;2023-07-16T14:04:53;5.07;;;3.35;;
58250;SDS011;51449;51.676;5.812;2023-07-16T14:07:15;4.72;;;3.03;;
58250;SDS011;51449;51.676;5.812;2023-07-16T14:09:37;5.22;;;3.08;;
58250;SDS011;51449;51.676;5.812;2023-07-16T14:11:58;4.20;;;2.80;;
58250;SDS011;51449;51.676;5.812;2023-07-16T14:14:21;6.97;;;3.17;;
58250;SDS011;51449;51.676;5.812;2023-07-16T14:16:44;3.37;;;2.63;;
58250;SDS011;51449;51.676;5.812;2023-07-16T14:19:06;4.20;;;2.47;;
58250;SDS011;51449;51.676;5.812;2023-07-16T14:21:27;4.18;;;2.35;;
58250;SDS011;51449;51.676;5.812;2023-07-16T14:23:50;4.57;;;2.40;;
58250;SDS011;51449;51.676;5.812;2023-07-16T14:26:12;5.28;;;2.42;;
58250;SDS011;51449;51.676;5.812;2023-07-16T14:28:33;4.15;;;2.47;;
58250;SDS011;51449;51.676;5.812;2023-07-16T14:30:55;3.63;;;2.55;;
58250;SDS011;51449;51.676;5.812;2023-07-16T14:33:17;4.68;;;2.80;;
58250;SDS011;51449;51.676;5.812;2023-07-16T14:35:39;5.00;;;2.63;;